| time (UTC) | temp C | wind direction | speed KPH | gust KPH | rain 1hr cm | rain 24hr cm | rain mn cm | humidity % | barometer mb |
| 20260510194018 | 32 | 240 | 1.6 | 11.3 | 0.00 | 0.00 | 0.00 | 62 | 1017.3 |
| 20260510193014 | 32 | 241 | 6.4 | 14.5 | 0.00 | 0.00 | 0.00 | 60 | 1017.3 |
| 20260510192011 | 32 | 144 | 6.4 | 12.9 | 0.00 | 0.00 | 0.00 | 60 | 1017.2 |
| 20260510191010 | 32 | 254 | 12.9 | 17.7 | 0.00 | 0.00 | 0.00 | 61 | 1017.3 |
| 20260510190010 | 30 | 231 | 0.0 | 8.0 | 0.00 | 0.00 | 0.00 | 65 | 1017.4 |
| 20260510185010 | 29 | 270 | 4.8 | 9.7 | 0.00 | 0.00 | 0.00 | 67 | 1017.3 |
| 20260510184008 | 31 | 212 | 3.2 | 20.9 | 0.00 | 0.00 | 0.00 | 63 | 1017.5 |
| 20260510183005 | 34 | 259 | 8.0 | 16.1 | 0.00 | 0.00 | 0.00 | 54 | 1017.4 |
| 20260510182002 | 35 | 48 | 6.4 | 17.7 | 0.00 | 0.00 | 0.00 | 52 | 1017.1 |
| 20260510181002 | 35 | 267 | 14.5 | 20.9 | 0.00 | 0.00 | 0.00 | 56 | 1017.2 |
| 20260510180003 | 33 | 212 | 3.2 | 6.4 | 0.00 | 0.00 | 0.00 | 61 | 1017.3 |
| 20260510175000 | 33 | 112 | 9.7 | 14.5 | 0.00 | 0.00 | 0.00 | 60 | 1017.4 |
| 20260510174001 | 33 | 249 | 6.4 | 11.3 | 0.00 | 0.00 | 0.00 | 61 | 1017.5 |
| 20260510172959 | 33 | 21 | 3.2 | 16.1 | 0.00 | 0.00 | 0.00 | 63 | 1017.8 |
| 20260510171957 | 33 | 260 | 0.0 | 16.1 | 0.00 | 0.00 | 0.00 | 61 | 1018.0 |
| 20260510170957 | 33 | 37 | 3.2 | 24.1 | 0.00 | 0.00 | 0.00 | 59 | 1017.8 |
| 20260510165954 | 33 | 258 | 3.2 | 9.7 | 0.00 | 0.00 | 0.00 | 60 | 1018.1 |
| 20260510164953 | 32 | 232 | 6.4 | 9.7 | 0.00 | 0.00 | 0.00 | 69 | 1018.1 |
| 20260510163952 | 32 | 180 | 0.0 | 11.3 | 0.00 | 0.00 | 0.00 | 69 | 1018.1 |
| 20260510162949 | 32 | 240 | 4.8 | 8.0 | 0.00 | 0.00 | 0.00 | 69 | 1018.4 |
| 20260510161948 | 32 | 187 | 1.6 | 12.9 | 0.00 | 0.00 | 0.00 | 69 | 1018.5 |
| 20260510160947 | 32 | 197 | 6.4 | 11.3 | 0.00 | 0.00 | 0.00 | 70 | 1018.5 |
| 20260510155942 | 32 | 203 | 4.8 | 16.1 | 0.00 | 0.00 | 0.00 | 71 | 1018.5 |
| 20260510154942 | 31 | 243 | 4.8 | 9.7 | 0.00 | 0.00 | 0.00 | 74 | 1018.4 |
| 20260510153937 | 31 | 270 | 8.0 | 17.7 | 0.00 | 0.00 | 0.00 | 74 | 1018.6 |
| 20260510152937 | 30 | 246 | 11.3 | 24.1 | 0.00 | 0.00 | 0.00 | 77 | 1018.6 |
| 20260510151937 | 31 | 239 | 6.4 | 12.9 | 0.00 | 0.00 | 0.00 | 76 | 1018.4 |
| 20260510150935 | 30 | 245 | 11.3 | 12.9 | 0.00 | 0.00 | 0.00 | 77 | 1018.4 |
| 20260510145933 | 30 | 203 | 3.2 | 9.7 | 0.00 | 0.00 | 0.00 | 77 | 1018.4 |
| 20260510144932 | 30 | 175 | 8.0 | 9.7 | 0.00 | 0.00 | 0.00 | 77 | 1018.4 |
| 20260510143931 | 30 | 270 | 9.7 | 16.1 | 0.00 | 0.00 | 0.00 | 78 | 1018.3 |
| 20260510142930 | 30 | 289 | 3.2 | 11.3 | 0.00 | 0.00 | 0.00 | 79 | 1018.2 |
| 20260510141929 | 29 | 216 | 0.0 | 11.3 | 0.00 | 0.00 | 0.00 | 81 | 1018.0 |
| 20260510140923 | 28 | 248 | 9.7 | 9.7 | 0.00 | 0.00 | 0.00 | 82 | 1018.0 |
| 20260510135918 | 28 | 192 | 3.2 | 8.0 | 0.00 | 0.00 | 0.00 | 84 | 1018.0 |
| 20260510134918 | 27 | 202 | 3.2 | 8.0 | 0.00 | 0.00 | 0.00 | 86 | 1018.0 |
| 20260510133916 | 27 | 246 | 8.0 | 12.9 | 0.00 | 0.00 | 0.00 | 86 | 1018.1 |
| 20260510132914 | 27 | 204 | 3.2 | 9.7 | 0.00 | 0.00 | 0.00 | 88 | 1018.0 |
| 20260510131909 | 27 | 195 | 3.2 | 8.0 | 0.00 | 0.00 | 0.00 | 88 | 1017.9 |
| 20260510130908 | 27 | 259 | 4.8 | 6.4 | 0.00 | 0.00 | 0.00 | 89 | 1017.8 |
| 20260510125908 | 25 | 119 | 4.8 | 8.0 | 0.00 | 0.00 | 0.00 | 92 | 1017.9 |
| 20260510124907 | 25 | 243 | 0.0 | 8.0 | 0.00 | 0.00 | 0.00 | 95 | 1017.7 |
| 20260510123906 | 25 | 236 | 3.2 | 6.4 | 0.00 | 0.00 | 0.00 | 94 | 1017.8 |
| 20260510122904 | 25 | 236 | 6.4 | 6.4 | 0.00 | 0.00 | 0.00 | 96 | 1017.6 |
| 20260510121901 | 24 | 213 | 3.2 | 6.4 | 0.00 | 0.00 | 0.00 | 97 | 1017.4 |
| 20260510120856 | 23 | 270 | 3.2 | 8.0 | 0.00 | 0.00 | 0.00 | 99 | 1017.4 |
| 20260510115854 | 23 | 254 | 3.2 | 6.4 | 0.00 | 0.00 | 0.00 | 99 | 1017.2 |
| 20260510114853 | 22 | 255 | 0.0 | 6.4 | 0.00 | 0.00 | 0.00 | 99 | 1017.1 |
| 20260510113851 | 22 | 229 | 0.0 | 4.8 | 0.00 | 0.00 | 0.00 | 99 | 1016.8 |
| 20260510112850 | 22 | 190 | 0.0 | 3.2 | 0.00 | 0.00 | 0.00 | 99 | 1016.8 |
| 20260510111848 | 22 | 188 | 0.0 | 4.8 | 0.00 | 0.00 | 0.00 | 99 | 1016.3 |
| 20260510110845 | 22 | 172 | 0.0 | 0.0 | 0.00 | 0.00 | 0.00 | 99 | 1016.2 |
| 20260510105845 | 22 | 186 | 0.0 | 1.6 | 0.00 | 0.00 | 0.00 | 99 | 1016.0 |
| 20260510104841 | 22 | 126 | 0.0 | 3.2 | 0.00 | 0.00 | 0.00 | 99 | 1015.9 |
| 20260510103840 | 22 | 157 | 0.0 | 3.2 | 0.00 | 0.00 | 0.00 | 99 | 1016.1 |
| 20260510102838 | 22 | 188 | 0.0 | 3.2 | 0.00 | 0.00 | 0.00 | 99 | 1015.8 |
| 20260510101837 | 22 | 195 | 3.2 | 8.0 | 0.00 | 0.00 | 0.00 | 99 | 1015.7 |
| 20260510100837 | 22 | 200 | 0.0 | 4.8 | 0.00 | 0.00 | 0.00 | 99 | 1015.6 |
| 20260510095838 | 22 | 186 | 0.0 | 4.8 | 0.00 | 0.00 | 0.00 | 99 | 1015.2 |
| 20260510094832 | 22 | 98 | 0.0 | 3.2 | 0.00 | 0.00 | 0.00 | 99 | 1015.4 |
| 20260510093830 | 22 | 180 | 0.0 | 1.6 | 0.00 | 0.00 | 0.00 | 99 | 1015.3 |
| 20260510092828 | 22 | 194 | 1.6 | 6.4 | 0.00 | 0.00 | 0.00 | 99 | 1015.3 |
| 20260510091826 | 22 | 199 | 3.2 | 4.8 | 0.00 | 0.00 | 0.00 | 99 | 1015.3 |
| 20260510090825 | 22 | 168 | 0.0 | 4.8 | 0.00 | 0.00 | 0.00 | 99 | 1015.2 |
| 20260510085824 | 22 | 180 | 0.0 | 3.2 | 0.00 | 0.00 | 0.00 | 99 | 1015.0 |
| 20260510084820 | 22 | 206 | 3.2 | 8.0 | 0.00 | 0.00 | 0.00 | 99 | 1015.0 |
| 20260510083820 | 22 | 114 | 0.0 | 4.8 | 0.00 | 0.00 | 0.00 | 99 | 1014.7 |
| 20260510082818 | 22 | 145 | 1.6 | 4.8 | 0.00 | 0.00 | 0.00 | 99 | 1014.8 |
| 20260510081814 | 22 | 180 | 0.0 | 4.8 | 0.00 | 0.00 | 0.00 | 99 | 1014.7 |
| 20260510080812 | 22 | 168 | 0.0 | 3.2 | 0.00 | 0.00 | 0.00 | 99 | 1014.8 |
| 20260510075810 | 22 | 180 | 0.0 | 4.8 | 0.00 | 0.00 | 0.00 | 99 | 1014.8 |
| 20260510074810 | 22 | 157 | 0.0 | 3.2 | 0.00 | 0.00 | 0.00 | 99 | 1014.8 |
| 20260510073809 | 22 | 173 | 4.8 | 4.8 | 0.00 | 0.00 | 0.00 | 99 | 1014.8 |
| 20260510072807 | 22 | 110 | 0.0 | 3.2 | 0.00 | 0.00 | 0.00 | 99 | 1015.2 |
| 20260510071806 | 22 | 145 | 0.0 | 3.2 | 0.00 | 0.00 | 0.00 | 99 | 1015.2 |
| 20260510070802 | 22 | 175 | 1.6 | 3.2 | 0.00 | 0.00 | 0.00 | 99 | 1015.1 |
| 20260510065758 | 22 | 145 | 1.6 | 4.8 | 0.00 | 0.00 | 0.00 | 99 | 1015.3 |
| 20260510064758 | 22 | 165 | 3.2 | 3.2 | 0.00 | 0.00 | 0.00 | 99 | 1015.4 |
| 20260510063757 | 22 | 106 | 0.0 | 3.2 | 0.00 | 0.00 | 0.00 | 99 | 1015.5 |
| 20260510062756 | 22 | 172 | 0.0 | 0.0 | 0.00 | 0.00 | 0.00 | 99 | 1015.7 |
| 20260510061753 | 22 | 186 | 0.0 | 3.2 | 0.00 | 0.00 | 0.00 | 99 | 1015.9 |
| 20260510060752 | 22 | 264 | 3.2 | 4.8 | 0.00 | 0.00 | 0.00 | 99 | 1015.9 |
| 20260510055752 | 22 | 180 | 0.0 | 0.0 | 0.00 | 0.00 | 0.00 | 99 | 1015.9 |
| 20260510054749 | 22 | 106 | 0.0 | 1.6 | 0.00 | 0.00 | 0.00 | 99 | 1016.4 |
| 20260510053745 | 22 | 106 | 0.0 | 0.0 | 0.00 | 0.00 | 0.00 | 99 | 1016.5 |
| 20260510052743 | 22 | 106 | 0.0 | 0.0 | 0.00 | 0.00 | 0.00 | 99 | 1016.5 |
| 20260510051742 | 22 | 90 | 1.6 | 3.2 | 0.00 | 0.00 | 0.00 | 99 | 1016.5 |
| 20260510050741 | 22 | 200 | 0.0 | 0.0 | 0.00 | 0.00 | 0.00 | 99 | 1016.6 |
| 20260510045741 | 22 | 166 | 0.0 | 3.2 | 0.00 | 0.00 | 0.00 | 99 | 1016.8 |
| 20260510044740 | 22 | 105 | 0.0 | 0.0 | 0.00 | 0.00 | 0.00 | 98 | 1016.8 |
| 20260510043739 | 22 | 90 | 0.0 | 0.0 | 0.00 | 0.00 | 0.00 | 97 | 1017.2 |
| 20260510042734 | 23 | 165 | 0.0 | 0.0 | 0.00 | 0.00 | 0.00 | 96 | 1017.2 |
| 20260510041732 | 23 | 114 | 0.0 | 1.6 | 0.00 | 0.00 | 0.00 | 96 | 1017.1 |
| 20260510040733 | 23 | 173 | 0.0 | 1.6 | 0.00 | 0.00 | 0.00 | 94 | 1017.1 |
| 20260510035730 | 23 | 165 | 0.0 | 1.6 | 0.00 | 0.00 | 0.00 | 94 | 1017.3 |
| 20260510034728 | 23 | 78 | 0.0 | 4.8 | 0.00 | 0.00 | 0.00 | 94 | 1017.0 |
| 20260510033728 | 23 | 105 | 0.0 | 1.6 | 0.00 | 0.00 | 0.00 | 94 | 1017.2 |
| 20260510032728 | 22 | 0 | 0.0 | 0.0 | 0.00 | 0.00 | 0.00 | 94 | 1017.2 |
| 20260510031725 | 22 | 74 | 0.0 | 0.0 | 0.00 | 0.00 | 0.00 | 94 | 1016.9 |
| 20260510030720 | 22 | 114 | 0.0 | 1.6 | 0.00 | 0.00 | 0.00 | 94 | 1017.0 |
| 20260510025716 | 22 | 126 | 0.0 | 0.0 | 0.00 | 0.00 | 0.00 | 94 | 1016.9 |
| 20260510024716 | 22 | 126 | 0.0 | 0.0 | 0.00 | 0.00 | 0.00 | 93 | 1016.9 |
| 20260510023714 | 23 | 81 | 0.0 | 0.0 | 0.00 | 0.00 | 0.00 | 92 | 1016.8 |
| 20260510022713 | 23 | 111 | 0.0 | 0.0 | 0.00 | 0.00 | 0.00 | 92 | 1016.8 |
| 20260510021709 | 23 | 180 | 0.0 | 0.0 | 0.00 | 0.00 | 0.00 | 91 | 1016.8 |
| 20260510020707 | 23 | 105 | 0.0 | 1.6 | 0.00 | 0.00 | 0.00 | 90 | 1016.7 |
| 20260510015704 | 23 | 112 | 0.0 | 3.2 | 0.00 | 0.00 | 0.00 | 89 | 1016.5 |
| 20260510014701 | 23 | 82 | 0.0 | 3.2 | 0.00 | 0.00 | 0.00 | 88 | 1016.5 |
| 20260510013659 | 23 | 69 | 0.0 | 4.8 | 0.00 | 0.00 | 0.00 | 87 | 1016.6 |
| 20260510012655 | 24 | 90 | 3.2 | 3.2 | 0.00 | 0.00 | 0.00 | 87 | 1016.2 |
| 20260510011652 | 24 | 59 | 3.2 | 6.4 | 0.00 | 0.00 | 0.00 | 86 | 1016.1 |
| 20260510010650 | 24 | 81 | 0.0 | 4.8 | 0.00 | 0.00 | 0.00 | 86 | 1016.1 |
| 20260510005649 | 25 | 286 | 0.0 | 4.8 | 0.00 | 0.00 | 0.00 | 86 | 1016.0 |
| 20260510004644 | 25 | 203 | 1.6 | 4.8 | 0.00 | 0.00 | 0.00 | 85 | 1015.8 |
| 20260510003639 | 25 | 33 | 4.8 | 8.0 | 0.00 | 0.00 | 0.00 | 85 | 1015.8 |
| 20260510002635 | 25 | 111 | 1.6 | 3.2 | 0.00 | 0.00 | 0.00 | 85 | 1015.7 |
| 20260510001634 | 25 | 109 | 4.8 | 11.3 | 0.00 | 0.00 | 0.00 | 85 | 1015.5 |
| 20260510000633 | 25 | 283 | 0.0 | 8.0 | 0.00 | 0.00 | 0.00 | 85 | 1015.2 |
| 20260509235632 | 26 | 312 | 3.2 | 8.0 | 0.00 | 0.00 | 0.00 | 85 | 1015.3 |
| 20260509234631 | 26 | 254 | 0.0 | 9.7 | 0.00 | 0.00 | 0.00 | 85 | 1015.2 |
| 20260509233626 | 27 | 336 | 3.2 | 9.7 | 0.00 | 0.00 | 0.00 | 74 | 1014.8 |
| 20260509232625 | 28 | 330 | 3.2 | 12.9 | 0.00 | 0.00 | 0.00 | 74 | 1014.6 |
| 20260509231625 | 28 | 319 | 3.2 | 11.3 | 0.00 | 0.00 | 0.00 | 73 | 1014.6 |
| 20260509230625 | 28 | 324 | 3.2 | 9.7 | 0.00 | 0.00 | 0.00 | 73 | 1014.6 |
| 20260509225623 | 28 | 307 | 4.8 | 11.3 | 0.00 | 0.00 | 0.00 | 72 | 1014.5 |
| 20260509224620 | 29 | 283 | 3.2 | 8.0 | 0.00 | 0.00 | 0.00 | 70 | 1014.3 |
| 20260509223620 | 30 | 345 | 3.2 | 11.3 | 0.00 | 0.00 | 0.00 | 69 | 1014.1 |
| 20260509222620 | 30 | 157 | 3.2 | 6.4 | 0.00 | 0.00 | 0.00 | 68 | 1013.9 |
| 20260509221617 | 31 | 327 | 4.8 | 8.0 | 0.00 | 0.00 | 0.00 | 63 | 1013.9 |
| 20260509220616 | 31 | 294 | 8.0 | 8.0 | 0.00 | 0.00 | 0.00 | 60 | 1013.9 |
| 20260509215614 | 31 | 257 | 11.3 | 19.3 | 0.00 | 0.00 | 0.00 | 60 | 1013.8 |
| 20260509214614 | 32 | 23 | 0.0 | 14.5 | 0.00 | 0.00 | 0.00 | 60 | 1013.7 |
| 20260509213613 | 32 | 250 | 4.8 | 17.7 | 0.00 | 0.00 | 0.00 | 60 | 1013.5 |
| 20260509212613 | 33 | 83 | 4.8 | 17.7 | 0.00 | 0.00 | 0.00 | 57 | 1013.5 |
| 20260509211611 | 33 | 300 | 4.8 | 11.3 | 0.00 | 0.00 | 0.00 | 58 | 1013.3 |
| 20260509210610 | 32 | 244 | 8.0 | 11.3 | 0.00 | 0.00 | 0.00 | 63 | 1013.3 |
| 20260509205608 | 32 | 328 | 0.0 | 9.7 | 0.00 | 0.00 | 0.00 | 61 | 1013.4 |
| 20260509204605 | 31 | 245 | 4.8 | 16.1 | 0.00 | 0.00 | 0.00 | 62 | 1013.6 |
| 20260509203604 | 31 | 201 | 3.2 | 9.7 | 0.00 | 0.00 | 0.00 | 63 | 1013.6 |
| 20260509202602 | 32 | 97 | 1.6 | 11.3 | 0.00 | 0.00 | 0.00 | 63 | 1013.6 |
| 20260509201558 | 31 | 330 | 3.2 | 9.7 | 0.00 | 0.00 | 0.00 | 64 | 1013.3 |
| 20260509200556 | 30 | 241 | 0.0 | 6.4 | 0.00 | 0.00 | 0.00 | 69 | 1013.6 |
| 20260509195554 | 30 | 241 | 0.0 | 6.4 | 0.00 | 0.00 | 0.00 | 69 | 1013.5 |
| 20260509194554 | 30 | 234 | 0.0 | 4.8 | 0.00 | 0.00 | 0.00 | 68 | 1013.5 |